createdAt,value
2018-01-20T00:29:41.339Z,38.28
2018-01-20T00:32:07.927Z,36.60
2018-01-20T00:34:34.517Z,31.12
2018-01-20T00:37:01.096Z,34.58
2018-01-20T00:39:27.678Z,32.60
2018-01-20T00:41:54.577Z,39.75
2018-01-20T00:44:21.163Z,39.28
2018-01-20T00:46:47.751Z,40.30
2018-01-20T00:49:14.353Z,34.78
2018-01-20T00:51:40.942Z,39.00
2018-01-20T00:54:07.533Z,42.62
2018-01-20T00:56:34.119Z,31.70
2018-01-20T00:59:00.704Z,40.85
2018-01-20T01:01:27.284Z,39.72
2018-01-20T01:03:53.883Z,35.95
2018-01-20T01:06:20.468Z,35.42
2018-01-20T01:08:47.052Z,40.35
2018-01-20T01:11:13.647Z,35.53
2018-01-20T01:13:40.235Z,33.17
2018-01-20T01:16:06.823Z,37.35
2018-01-20T01:18:33.430Z,35.38
2018-01-20T01:21:00.020Z,34.25
2018-01-20T01:23:26.599Z,39.10
2018-01-20T01:25:53.187Z,36.65
2018-01-20T01:28:19.775Z,32.08
2018-01-20T01:30:46.356Z,35.58
2018-01-20T01:33:12.943Z,36.42
2018-01-20T01:35:39.537Z,40.55
2018-01-20T01:38:06.123Z,35.55
2018-01-20T01:40:32.703Z,32.65
2018-01-20T01:42:59.567Z,32.75
2018-01-20T01:45:26.147Z,33.75
2018-01-20T01:47:52.726Z,44.75
2018-01-20T01:50:19.306Z,33.78
2018-01-20T01:52:45.892Z,37.53
2018-01-20T01:55:12.483Z,33.03
2018-01-20T01:57:39.071Z,31.73
2018-01-20T02:00:05.648Z,36.63
2018-01-20T02:02:32.231Z,31.87
2018-01-20T02:04:58.805Z,36.38
2018-01-20T02:07:25.615Z,35.22
2018-01-20T02:09:52.196Z,34.53
2018-01-20T02:12:18.783Z,34.28
2018-01-20T02:14:45.366Z,35.83
2018-01-20T02:17:11.955Z,37.03
2018-01-20T02:19:38.544Z,38.67
2018-01-20T02:22:05.124Z,40.88
2018-01-20T02:24:31.706Z,39.08
2018-01-20T02:26:58.316Z,43.60
2018-01-20T02:29:24.894Z,44.47
2018-01-20T02:31:51.470Z,44.88
2018-01-20T02:34:18.104Z,42.97
2018-01-20T02:36:44.680Z,40.83
2018-01-20T02:39:11.260Z,39.83
2018-01-20T02:41:37.863Z,41.63
2018-01-20T02:44:04.438Z,42.90
2018-01-20T02:46:31.027Z,39.65
2018-01-20T02:48:57.639Z,47.97
2018-01-20T02:51:24.222Z,42.30
2018-01-20T02:53:50.803Z,48.40
2018-01-20T02:56:17.415Z,45.20
2018-01-20T02:58:43.987Z,46.47
2018-01-20T03:01:10.570Z,47.95
2018-01-20T03:03:37.170Z,48.58
2018-01-20T03:06:03.764Z,47.15
2018-01-20T03:08:30.348Z,52.30
2018-01-20T03:10:56.935Z,51.40
2018-01-20T03:13:23.515Z,42.20
2018-01-20T03:15:50.111Z,53.25
2018-01-20T03:18:16.692Z,49.20
2018-01-20T03:20:43.266Z,48.60
2018-01-20T03:23:09.864Z,47.40
2018-01-20T03:25:36.455Z,52.40
2018-01-20T03:28:03.034Z,52.35
2018-01-20T03:30:29.635Z,54.55
2018-01-20T03:32:56.211Z,52.22
2018-01-20T03:35:22.796Z,52.62
2018-01-20T03:37:49.395Z,47.47
2018-01-20T03:40:15.979Z,51.55
2018-01-20T03:42:42.558Z,47.33
2018-01-20T03:45:09.519Z,54.08
2018-01-20T03:47:36.100Z,41.25
2018-01-20T03:50:02.678Z,56.70
2018-01-20T03:52:29.275Z,56.28
2018-01-20T03:54:55.850Z,51.37
2018-01-20T03:57:22.436Z,55.72
2018-01-20T03:59:49.276Z,50.58
2018-01-20T04:02:15.855Z,49.83
2018-01-20T04:04:42.447Z,50.92
2018-01-20T04:07:09.031Z,58.38
2018-01-20T04:09:35.616Z,55.35
2018-01-20T04:12:02.195Z,53.00
2018-01-20T04:14:28.799Z,60.60
2018-01-20T04:16:55.382Z,56.05
2018-01-20T04:19:21.966Z,70.05
2018-01-20T04:21:48.747Z,59.90
2018-01-20T04:24:15.327Z,63.63
2018-01-20T04:26:41.910Z,69.45
2018-01-20T04:29:08.692Z,49.85
2018-01-20T04:31:35.273Z,53.17
2018-01-20T04:34:01.854Z,56.22
2018-01-20T04:36:28.465Z,58.72
2018-01-20T04:38:55.046Z,55.60
2018-01-20T04:41:21.634Z,64.80
2018-01-20T04:43:48.222Z,57.17
2018-01-20T04:46:14.803Z,53.22
2018-01-20T04:48:41.568Z,56.42
2018-01-20T04:51:08.152Z,46.03
2018-01-20T04:53:34.730Z,61.55
2018-01-20T04:56:01.347Z,63.38
2018-01-20T04:58:27.934Z,55.22
2018-01-20T05:00:54.515Z,46.78
2018-01-20T05:03:21.206Z,45.63
2018-01-20T05:05:47.779Z,61.78
2018-01-20T05:08:14.359Z,57.95
2018-01-20T05:10:40.941Z,57.95
2018-01-20T05:13:07.526Z,52.47
2018-01-20T05:15:34.111Z,58.58
2018-01-20T05:18:00.738Z,56.25
2018-01-20T05:20:27.314Z,48.42
2018-01-20T05:22:53.897Z,61.22
2018-01-20T05:25:20.495Z,55.17
2018-01-20T05:27:47.312Z,45.63
2018-01-20T05:30:13.891Z,54.85
2018-01-20T05:32:40.683Z,46.58
2018-01-20T05:35:07.263Z,54.33
2018-01-20T05:37:33.851Z,57.88
2018-01-20T05:40:00.439Z,52.45
2018-01-20T05:42:27.018Z,51.55
2018-01-20T05:44:53.603Z,42.62
2018-01-20T05:47:20.220Z,42.20
2018-01-20T05:49:46.795Z,53.65
2018-01-20T05:52:13.366Z,44.25
2018-01-20T05:54:39.963Z,59.25
2018-01-20T05:57:06.540Z,51.03
2018-01-20T05:59:33.122Z,50.08
2018-01-20T06:01:59.814Z,47.72
2018-01-20T06:04:26.403Z,53.55
2018-01-20T06:06:52.979Z,51.65
2018-01-20T06:09:19.574Z,41.92
2018-01-20T06:11:46.163Z,56.47
2018-01-20T06:14:12.746Z,44.75
2018-01-20T06:16:39.638Z,51.80
2018-01-20T06:19:06.219Z,50.50
2018-01-20T06:21:32.803Z,46.08
2018-01-20T06:23:59.384Z,38.70
2018-01-20T06:26:26.000Z,47.38
2018-01-20T06:28:52.576Z,48.90
2018-01-20T06:31:19.154Z,51.42
2018-01-20T06:33:45.833Z,50.97
2018-01-20T06:36:12.413Z,45.50
2018-01-20T06:38:38.994Z,53.83
2018-01-20T06:41:05.594Z,63.47
2018-01-20T06:43:32.179Z,50.88
2018-01-20T06:45:58.760Z,49.63
2018-01-20T06:48:25.455Z,52.53
2018-01-20T06:50:52.034Z,52.95
2018-01-20T06:53:18.624Z,50.53
2018-01-20T06:55:45.227Z,52.53
2018-01-20T06:58:11.814Z,52.15
2018-01-20T07:00:38.390Z,54.33
2018-01-20T07:03:04.983Z,59.25
2018-01-20T07:05:31.568Z,55.75
2018-01-20T07:07:58.148Z,59.13
2018-01-20T07:10:24.731Z,60.05
2018-01-20T07:12:51.346Z,63.42
2018-01-20T07:15:17.927Z,57.62
2018-01-20T07:17:44.511Z,58.78
2018-01-20T07:20:11.100Z,56.72
2018-01-20T07:22:37.859Z,56.03
2018-01-20T07:25:04.438Z,58.80
2018-01-20T07:27:31.031Z,57.20
2018-01-20T07:29:57.882Z,54.13
2018-01-20T07:32:24.455Z,55.28
2018-01-20T07:34:51.039Z,57.08
2018-01-20T07:37:17.637Z,65.47
2018-01-20T07:39:44.218Z,56.90
2018-01-20T07:42:10.794Z,52.70
2018-01-20T07:44:37.406Z,58.87
2018-01-20T07:47:03.995Z,51.05
2018-01-20T07:49:30.584Z,58.87
2018-01-20T07:51:57.167Z,60.95
2018-01-20T07:54:23.748Z,53.80
2018-01-20T07:56:50.341Z,57.35
2018-01-20T07:59:16.941Z,53.42
2018-01-20T08:01:43.522Z,57.35
2018-01-20T08:04:10.103Z,64.25
2018-01-20T08:06:36.708Z,55.00
2018-01-20T08:09:03.290Z,51.78
2018-01-20T08:11:29.890Z,53.65
2018-01-20T08:13:56.478Z,56.55
2018-01-20T08:16:23.059Z,53.42
2018-01-20T08:18:49.638Z,50.05
2018-01-20T08:21:16.239Z,53.75
2018-01-20T08:23:42.827Z,52.45
2018-01-20T08:26:09.502Z,49.35
2018-01-20T08:28:36.086Z,56.42
2018-01-20T08:31:02.670Z,60.67
2018-01-20T08:33:29.491Z,64.18
2018-01-20T08:35:56.086Z,54.80
2018-01-20T08:38:22.666Z,52.42
2018-01-20T08:40:49.258Z,54.17
2018-01-20T08:43:15.846Z,42.15
2018-01-20T08:45:42.429Z,50.78
2018-01-20T08:48:09.010Z,53.30
2018-01-20T08:50:35.587Z,49.60
2018-01-20T08:53:02.231Z,59.75
2018-01-20T08:55:28.830Z,58.97
2018-01-20T08:57:55.413Z,55.47
2018-01-20T09:00:21.986Z,60.92
2018-01-20T09:02:48.592Z,54.40
2018-01-20T09:05:15.178Z,62.45
2018-01-20T09:07:41.762Z,63.03
2018-01-20T09:10:08.360Z,57.03
2018-01-20T09:12:34.944Z,51.90
2018-01-20T09:15:01.526Z,58.13
2018-01-20T09:17:28.428Z,55.42
2018-01-20T09:19:55.014Z,59.60
2018-01-20T09:22:21.586Z,44.22
2018-01-20T09:24:48.181Z,56.25
2018-01-20T09:27:14.758Z,49.67
2018-01-20T09:29:41.346Z,62.20
2018-01-20T09:32:07.964Z,52.47
2018-01-20T09:34:34.539Z,47.15
2018-01-20T09:37:01.122Z,50.22
2018-01-20T09:39:27.730Z,52.28
2018-01-20T09:41:54.312Z,48.72
2018-01-20T09:44:20.903Z,49.42
2018-01-20T09:46:47.511Z,45.10
2018-01-20T09:49:14.111Z,46.65
2018-01-20T09:51:40.700Z,49.78
2018-01-20T09:54:07.282Z,44.20
2018-01-20T09:56:34.188Z,45.53
2018-01-20T09:59:00.782Z,38.75
2018-01-20T10:01:27.363Z,45.15
2018-01-20T10:03:53.955Z,38.03
2018-01-20T10:06:20.548Z,42.67
2018-01-20T10:08:47.127Z,39.42
2018-01-20T10:11:13.723Z,39.13
2018-01-20T10:13:40.306Z,40.33
2018-01-20T10:16:06.978Z,34.55
2018-01-20T10:18:33.575Z,35.08
2018-01-20T10:21:00.157Z,28.90
2018-01-20T10:23:26.742Z,35.60
2018-01-20T10:25:53.328Z,40.35
2018-01-20T10:28:19.915Z,32.78
2018-01-20T10:30:46.535Z,37.17
2018-01-20T10:33:13.110Z,35.42
2018-01-20T10:35:39.692Z,33.50
2018-01-20T10:38:06.277Z,34.40
2018-01-20T10:40:32.859Z,34.55
2018-01-20T10:42:59.442Z,31.30
2018-01-20T10:45:26.398Z,33.08
2018-01-20T10:47:52.976Z,30.88
2018-01-20T10:50:19.564Z,35.08
2018-01-20T10:52:46.156Z,35.00
2018-01-20T10:55:12.742Z,33.30
2018-01-20T10:57:39.321Z,35.33
2018-01-20T11:00:05.922Z,31.37
2018-01-20T11:02:32.502Z,29.63
2018-01-20T11:04:59.113Z,29.98
2018-01-20T11:07:25.696Z,33.00
2018-01-20T11:09:52.279Z,33.20
2018-01-20T11:12:19.195Z,31.02
2018-01-20T11:14:45.774Z,33.38
2018-01-20T11:17:12.367Z,33.22
2018-01-20T11:19:38.954Z,32.92
2018-01-20T11:22:05.539Z,32.78
2018-01-20T11:24:32.127Z,37.33
2018-01-20T11:26:58.738Z,32.67
2018-01-20T11:29:25.327Z,38.90
2018-01-20T11:31:51.925Z,48.70
2018-01-20T11:34:18.511Z,38.17
2018-01-20T11:36:45.363Z,34.83
2018-01-20T11:39:11.951Z,38.17
2018-01-20T11:41:38.531Z,39.63
2018-01-20T11:44:05.128Z,39.95
2018-01-20T11:46:31.703Z,34.70
2018-01-20T11:48:58.290Z,33.65
2018-01-20T11:51:24.906Z,41.35
2018-01-20T11:53:51.476Z,39.42
2018-01-20T11:56:18.071Z,43.87
2018-01-20T11:58:44.654Z,37.17
2018-01-20T12:01:11.246Z,35.78
2018-01-20T12:03:37.838Z,38.90
2018-01-20T12:06:04.415Z,33.58
2018-01-20T12:08:31.011Z,36.00
2018-01-20T12:10:57.590Z,35.05
2018-01-20T12:13:24.179Z,36.78
2018-01-20T12:15:51.115Z,33.85
2018-01-20T12:18:17.719Z,34.75
2018-01-20T12:20:44.295Z,37.05
2018-01-20T12:23:10.991Z,35.78
2018-01-20T12:25:37.575Z,37.80
2018-01-20T12:28:04.171Z,39.92
2018-01-20T12:30:30.764Z,44.53
2018-01-20T12:32:57.351Z,41.65
2018-01-20T12:35:23.934Z,38.33
2018-01-20T12:37:50.539Z,37.28
2018-01-20T12:40:17.128Z,34.05
2018-01-20T12:42:43.719Z,37.83
2018-01-20T12:45:10.306Z,35.55
2018-01-20T12:47:36.894Z,39.90
2018-01-20T12:50:03.483Z,41.83
2018-01-20T12:52:30.067Z,41.55
2018-01-20T12:54:56.662Z,39.58
2018-01-20T12:57:23.247Z,37.00
2018-01-20T12:59:49.836Z,32.05
2018-01-20T13:02:16.420Z,39.17
2018-01-20T13:04:43.031Z,36.53
2018-01-20T13:07:09.618Z,39.72
2018-01-20T13:09:36.202Z,35.90
2018-01-20T13:12:02.806Z,53.67
2018-01-20T13:14:29.394Z,33.35
2018-01-20T13:16:55.987Z,39.20
2018-01-20T13:19:22.607Z,40.45
2018-01-20T13:21:49.195Z,36.25
2018-01-20T13:24:15.774Z,33.72
2018-01-20T13:26:42.358Z,35.67
2018-01-20T13:29:08.948Z,35.55
2018-01-20T13:31:35.543Z,37.05
2018-01-20T13:34:02.130Z,37.45
2018-01-20T13:36:28.715Z,36.85
2018-01-20T13:38:55.322Z,38.75
2018-01-20T13:41:21.917Z,38.35
2018-01-20T13:43:48.503Z,35.80
2018-01-20T13:46:15.106Z,40.50
2018-01-20T13:48:41.695Z,36.67
2018-01-20T13:51:08.280Z,32.58
2018-01-20T13:53:34.879Z,33.47
2018-01-20T13:56:01.471Z,39.30
2018-01-20T13:58:28.050Z,46.28
2018-01-20T14:00:54.674Z,39.92
2018-01-20T14:03:21.267Z,41.53
2018-01-20T14:05:47.856Z,37.40
2018-01-20T14:08:14.438Z,40.67
2018-01-20T14:10:41.037Z,33.60
2018-01-20T14:13:07.627Z,33.90
2018-01-20T14:15:34.211Z,39.25
2018-01-20T14:18:00.799Z,32.47
2018-01-20T14:20:27.383Z,37.53
2018-01-20T14:22:53.988Z,35.60
2018-01-20T14:25:20.581Z,33.33
2018-01-20T14:27:47.167Z,33.20
2018-01-20T14:30:13.774Z,35.08
2018-01-20T14:32:40.360Z,42.75
2018-01-20T14:35:06.946Z,40.80
2018-01-20T14:37:33.564Z,34.72
2018-01-20T14:40:00.148Z,38.60
2018-01-20T14:42:26.729Z,38.78
2018-01-20T14:44:53.328Z,34.22
2018-01-20T14:47:19.920Z,35.88
2018-01-20T14:49:46.526Z,35.35
2018-01-20T14:52:13.110Z,36.33
2018-01-20T14:54:39.695Z,36.90
2018-01-20T14:57:06.311Z,38.63
2018-01-20T14:59:32.886Z,30.67
2018-01-20T15:01:59.472Z,37.05
2018-01-20T15:04:26.078Z,47.78
2018-01-20T15:06:52.668Z,40.55
2018-01-20T15:09:19.255Z,39.50
2018-01-20T15:11:45.863Z,41.37
2018-01-20T15:14:12.459Z,39.53
2018-01-20T15:16:39.051Z,41.55
2018-01-20T15:19:05.645Z,42.80
2018-01-20T15:21:32.231Z,45.28
2018-01-20T15:23:58.811Z,44.37
2018-01-20T15:26:25.642Z,38.38
2018-01-20T15:28:52.237Z,43.28
2018-01-20T15:31:18.826Z,41.10
2018-01-20T15:33:45.507Z,46.37
2018-01-20T15:36:12.102Z,36.80
2018-01-20T15:38:38.691Z,41.40
2018-01-20T15:41:05.274Z,39.17
2018-01-20T15:43:31.863Z,37.40
2018-01-20T15:45:58.442Z,44.20
2018-01-20T15:48:25.046Z,44.87
2018-01-20T15:50:51.626Z,44.47
2018-01-20T15:53:18.202Z,42.07
2018-01-20T15:55:44.815Z,46.57
2018-01-20T15:58:11.412Z,46.85
2018-01-20T16:00:38.000Z,42.10
2018-01-20T16:03:04.604Z,46.70
2018-01-20T16:05:31.184Z,41.10
2018-01-20T16:07:57.755Z,48.00
2018-01-20T16:10:24.686Z,42.72
2018-01-20T16:12:51.263Z,42.20
2018-01-20T16:15:17.843Z,41.67
2018-01-20T16:17:44.451Z,43.23
2018-01-20T16:20:11.026Z,43.40
2018-01-20T16:22:37.606Z,52.53
2018-01-20T16:25:04.447Z,47.27
2018-01-20T16:27:31.027Z,51.70
2018-01-20T16:29:57.603Z,43.03
2018-01-20T16:32:24.519Z,45.93
2018-01-20T16:34:51.091Z,44.87
2018-01-20T16:37:17.668Z,41.17
2018-01-20T16:39:44.451Z,40.63
2018-01-20T16:42:11.027Z,46.80
2018-01-20T16:44:37.607Z,42.73
2018-01-20T16:47:04.207Z,40.87
2018-01-20T16:49:30.789Z,39.70
2018-01-20T16:51:57.373Z,44.10
2018-01-20T16:54:23.956Z,57.77
2018-01-20T16:56:50.544Z,43.67
2018-01-20T16:59:17.137Z,51.77
2018-01-20T17:01:43.715Z,47.47
2018-01-20T17:04:10.295Z,42.00
2018-01-20T17:06:37.106Z,40.93
2018-01-20T17:09:03.695Z,45.20
2018-01-20T17:11:30.269Z,37.40
2018-01-20T17:13:56.939Z,47.80
2018-01-20T17:16:23.551Z,39.80
2018-01-20T17:18:50.124Z,42.90
2018-01-20T17:21:16.714Z,43.20
2018-01-20T17:23:43.288Z,44.33
2018-01-20T17:26:09.870Z,39.20
2018-01-20T17:28:36.459Z,41.97
2018-01-20T17:31:03.030Z,41.00
2018-01-20T17:33:29.619Z,44.87
2018-01-20T17:35:56.443Z,43.57
2018-01-20T17:38:23.025Z,44.80
2018-01-20T17:40:49.612Z,48.42
2018-01-20T17:43:16.191Z,45.27
2018-01-20T17:45:42.783Z,48.55
2018-01-20T17:48:09.418Z,47.27
2018-01-20T17:50:36.099Z,50.77
2018-01-20T17:53:02.682Z,47.87
2018-01-20T17:55:29.246Z,46.40
2018-01-20T17:57:55.844Z,41.90
2018-01-20T18:00:22.419Z,48.37
2018-01-20T18:02:48.991Z,47.57
2018-01-20T18:05:15.609Z,45.20
2018-01-20T18:07:42.190Z,51.30
2018-01-20T18:10:08.760Z,50.67
2018-01-20T18:12:35.559Z,46.00
2018-01-20T18:15:02.151Z,52.08
2018-01-20T18:17:28.730Z,47.72
2018-01-20T18:19:55.364Z,48.33
2018-01-20T18:22:21.938Z,55.53
2018-01-20T18:24:48.519Z,46.40
2018-01-20T18:27:15.119Z,49.67
2018-01-20T18:29:41.703Z,48.73
2018-01-20T18:32:08.292Z,44.70
2018-01-20T18:34:34.899Z,45.47
2018-01-20T18:37:01.488Z,43.67
2018-01-20T18:39:28.070Z,48.83
2018-01-20T18:41:55.073Z,44.80
2018-01-20T18:44:21.640Z,47.55
2018-01-20T18:46:48.218Z,44.63
2018-01-20T18:49:14.828Z,48.55
2018-01-20T18:51:41.398Z,45.27
2018-01-20T18:54:07.987Z,46.65
2018-01-20T18:56:34.576Z,47.58
2018-01-20T18:59:01.166Z,48.15
2018-01-20T19:01:27.763Z,43.63
2018-01-20T19:03:54.350Z,42.60
2018-01-20T19:06:20.926Z,47.73
2018-01-20T19:08:47.521Z,48.28
2018-01-20T19:11:14.107Z,48.08
2018-01-20T19:13:40.682Z,46.97
2018-01-20T19:16:07.266Z,47.97
2018-01-20T19:18:33.857Z,53.30
2018-01-20T19:21:00.482Z,50.17
2018-01-20T19:23:27.071Z,54.45
2018-01-20T19:25:53.651Z,49.00
2018-01-20T19:28:20.402Z,50.77
2018-01-20T19:30:46.994Z,50.12
2018-01-20T19:33:13.596Z,53.00
2018-01-20T19:35:40.191Z,49.58
2018-01-20T19:38:06.767Z,49.47
2018-01-20T19:40:33.359Z,50.28
2018-01-20T19:42:59.939Z,46.57
2018-01-20T19:45:26.698Z,48.83
2018-01-20T19:47:53.278Z,51.40
2018-01-20T19:50:19.858Z,51.17
2018-01-20T19:52:46.469Z,52.33
2018-01-20T19:55:13.055Z,52.80
2018-01-20T19:57:39.651Z,57.28
2018-01-20T20:00:06.261Z,49.25
2018-01-20T20:02:32.822Z,48.93
2018-01-20T20:04:59.399Z,56.00
2018-01-20T20:07:25.987Z,56.23
2018-01-20T20:09:52.571Z,55.55
2018-01-20T20:12:19.169Z,51.85
2018-01-20T20:14:45.763Z,51.85
2018-01-20T20:17:12.351Z,57.83
2018-01-20T20:19:41.186Z,49.00
2018-01-20T20:22:07.776Z,51.80
2018-01-20T20:24:34.363Z,52.53
2018-01-20T20:27:00.959Z,53.10
2018-01-20T20:29:27.669Z,46.13
2018-01-20T20:31:54.253Z,56.70
2018-01-20T20:34:20.846Z,52.72
2018-01-20T20:36:47.474Z,48.70
2018-01-20T20:39:14.059Z,48.60
2018-01-20T20:41:40.646Z,51.30
2018-01-20T20:44:07.267Z,45.47
2018-01-20T20:46:33.860Z,51.83
2018-01-20T20:49:00.451Z,56.47
2018-01-20T20:51:27.035Z,47.80
2018-01-20T20:53:53.622Z,47.22
2018-01-20T20:56:20.215Z,46.65
2018-01-20T20:58:46.820Z,57.35
2018-01-20T21:01:13.430Z,53.80
2018-01-20T21:03:40.023Z,53.45
2018-01-20T21:06:06.607Z,43.78
2018-01-20T21:08:33.206Z,46.35
2018-01-20T21:10:59.803Z,54.05
2018-01-20T21:13:26.396Z,48.13
2018-01-20T21:15:53.082Z,48.63
2018-01-20T21:18:19.682Z,41.95
2018-01-20T21:20:46.275Z,44.05
2018-01-20T21:23:12.882Z,44.08
2018-01-20T21:25:39.480Z,47.58
2018-01-20T21:28:06.062Z,45.47
2018-01-20T21:30:32.674Z,41.80
2018-01-20T21:32:59.251Z,43.58
2018-01-20T21:35:25.851Z,48.22
2018-01-20T21:37:52.463Z,44.17
2018-01-20T21:40:19.051Z,41.33
2018-01-20T21:42:45.643Z,44.83
2018-01-20T21:45:12.480Z,47.75
2018-01-20T21:47:39.066Z,46.45
2018-01-20T21:50:05.655Z,49.00
2018-01-20T21:52:32.408Z,42.58
2018-01-20T21:54:58.997Z,48.97
2018-01-20T21:57:25.591Z,47.08
2018-01-20T21:59:52.183Z,48.22
2018-01-20T22:02:18.778Z,48.47
2018-01-20T22:04:45.387Z,45.20
2018-01-20T22:07:11.977Z,48.30
2018-01-20T22:09:38.563Z,42.80
2018-01-20T22:12:05.584Z,48.25
2018-01-20T22:14:32.167Z,46.75
2018-01-20T22:16:58.772Z,44.88
2018-01-20T22:19:25.401Z,44.42
2018-01-20T22:21:51.995Z,42.17
2018-01-20T22:24:18.586Z,46.65
2018-01-20T22:26:45.195Z,45.25
2018-01-20T22:29:11.783Z,46.00
2018-01-20T22:31:38.368Z,41.33
2018-01-20T22:34:04.980Z,47.00
2018-01-20T22:36:31.568Z,41.63
2018-01-20T22:38:58.153Z,47.80
2018-01-20T22:41:24.738Z,42.95
2018-01-20T22:43:51.332Z,44.08
2018-01-20T22:46:17.946Z,46.50
2018-01-20T22:48:44.570Z,46.30
2018-01-20T22:51:11.154Z,52.10
2018-01-20T22:53:37.857Z,40.28
2018-01-20T22:56:04.438Z,43.45
2018-01-20T22:58:31.031Z,41.83
2018-01-20T23:01:03.536Z,43.45
2018-01-20T23:03:30.119Z,47.97
2018-01-20T23:05:56.751Z,43.85
2018-01-20T23:08:23.423Z,46.90
2018-01-20T23:10:50.007Z,47.40
2018-01-20T23:13:16.598Z,42.10
2018-01-20T23:15:43.188Z,41.47
2018-01-20T23:18:09.778Z,43.53
2018-01-20T23:20:36.363Z,41.15
2018-01-20T23:23:02.953Z,37.67
2018-01-20T23:25:29.548Z,39.92
2018-01-20T23:27:56.438Z,38.58
2018-01-20T23:30:23.032Z,44.05
2018-01-20T23:32:49.618Z,43.55
2018-01-20T23:35:16.220Z,39.50
2018-01-20T23:37:42.806Z,41.55
2018-01-20T23:40:09.394Z,40.95
2018-01-20T23:42:36.020Z,45.63
2018-01-20T23:45:02.605Z,34.42
2018-01-20T23:47:29.195Z,40.75
2018-01-20T23:49:56.151Z,42.85
2018-01-20T23:52:22.738Z,42.58
2018-01-20T23:54:49.331Z,39.72
2018-01-20T23:57:15.947Z,36.00
2018-01-20T23:59:42.536Z,41.75
